الصفحة الرئيسية
METAR-TAF:

METAR-TAF

مطار :

مطار لارنكا الدولي

لارنكا, قبرص

دائرة عرض: 34-53N, خط طول: 033-38E, ارتفاع: 2 متر

مراقبة الطقس الحالي

تاريخ ووقت الإصدار 24 دقيقة قبل الساعة 23:00UTC
ريح 4 عقدة من الشمال الغربي
درجة الحرارة 22°درجة مئوية
الرطوبة 65%
ضغط 1013 hPa
الرؤية 10 كم أو أكثر
الغيوم لا تقل 1500 م ولا وجود لمزنة ركامية السحاب الأسود

METAR: LCLK 222300Z 32004KT CAVOK 22/15 Q1013 NOSIG

زمن: 02:24 (23:24 UTC)

توقعات

تاريخ ووقت الإصدار 5ساعات و 54 دقيقة قبل الساعة 17:30UTC
التوقعات صالحة من22 الساعة 18 UTC إلى 23 الساعة 18 UTC
ريح 6 عقدة من الشمال الغربي
الرؤية 10 كم أو أكثر
غيوم قليلة على ارتفاع 3000 قدم
أصبح
من 23 الساعة 09 UTC إلى 23 الساعة 13 UTC
ريح 13 عقدة من الجنوب/الجنوب الغربي

TAF: LCLK 221730Z 2218/2318 32006KT 9999 FEW030 BECMG 2309/2313 21013KT

أرصاد الطقس والتوقعات من أكثر من 4000 مطار (تقارير الطقس للمطار METAR والتنبؤ بالطقس بالمطارTAF).

المحطات المتاحة هي النقط الصفراء والحمراء على الخريطة.

حرك المؤشر فوق النقطة لمعرفة اسم المحطة.

ثم انقر لمعرفة أرصاد وتوقعات الطقس.

لتغيير الخارطة: اضغط على الأزرار الخضراء مع رمز الصليب الأسود للتكبير. على الزر الأخضر مع شرطة للتصغير، أو على الأسهم الخضراء للخرائط المجاورة.


METAR-TAF: